Terminal Aerodrome Forecast
Issued by NWS Amarillo, TX

Home | Current Version | Previous Version | Text Only | Print | Product List | Glossary On
Versions: 1 2 3 4 5 6 7 8 9 10 11 12 13 14 15 16 17 18 19 20 21
193
FTUS44 KAMA 251120
TAFDHT
TAF
KDHT 251120Z 2512/2612 35014G24KT P6SM OVC035
     FM251400 02026G36KT P6SM SCT060
     FM252300 03011KT P6SM SCT300=

USA.gov is the U.S. government's official web portal to all federal, state and local government web resources and services.